Time;durP1;ratioP1;P1;durP2;ratioP2;P2;SDS_P1;SDS_P2;PMS_P1;PMS_P2;Temp;Humidity;BMP_temperature;BMP_pressure;BME280_temperature;BME280_humidity;BME280_pressure;Samples;Min_cycle;Max_cycle;Signal;HPM_P1;HPM_P2
2022/04/05 00:01:47;;;;;;;16.83;2.40;;;;;;;;;;4949372;28;20043;-81
2022/04/05 00:04:14;;;;;;;22.38;1.98;;;;;;;;;;4946462;28;20536;-82
2022/04/05 00:06:40;;;;;;;16.88;2.17;;;;;;;;;;4964013;28;20027;-81
2022/04/05 00:09:06;;;;;;;16.90;2.03;;;;;;;;;;4964964;28;20139;-81
2022/04/05 00:11:32;;;;;;;19.92;1.83;;;;;;;;;;4941851;28;20488;-82
2022/04/05 00:13:58;;;;;;;12.27;2.42;;;;;;;;;;4964250;28;20030;-81
2022/04/05 00:16:24;;;;;;;18.67;2.40;;;;;;;;;;4965605;28;20081;-81
2022/04/05 00:18:50;;;;;;;5.82;1.00;;;;;;;;;;4945331;28;20063;-81
2022/04/05 00:21:16;;;;;;;8.85;1.25;;;;;;;;;;4962873;28;20118;-82
2022/04/05 00:23:42;;;;;;;7.28;2.13;;;;;;;;;;4957960;28;20034;-81
2022/04/05 00:26:08;;;;;;;27.92;2.75;;;;;;;;;;4962271;28;20440;-82
2022/04/05 00:28:34;;;;;;;6.43;1.17;;;;;;;;;;4964530;28;20023;-81
2022/04/05 00:31:00;;;;;;;8.90;1.58;;;;;;;;;;4961572;28;20057;-81
2022/04/05 00:33:26;;;;;;;17.95;2.78;;;;;;;;;;4962142;28;20034;-82
2022/04/05 00:35:52;;;;;;;18.25;2.58;;;;;;;;;;4947152;28;20240;-82
2022/04/05 00:38:18;;;;;;;15.55;1.88;;;;;;;;;;4977759;28;20709;-81
2022/04/05 00:40:45;;;;;;;22.80;2.83;;;;;;;;;;4974727;28;20546;-82
2022/04/05 00:43:11;;;;;;;21.20;2.47;;;;;;;;;;4962252;28;20034;-82
2022/04/05 00:45:37;;;;;;;15.45;2.08;;;;;;;;;;4976952;28;20520;-82
2022/04/05 00:48:04;;;;;;;18.40;2.60;;;;;;;;;;4978695;28;20069;-82
2022/04/05 00:50:32;;;;;;;19.15;1.67;;;;;;;;;;4979758;28;20034;-82
2022/04/05 00:53:02;;;;;;;14.32;2.28;;;;;;;;;;4960622;28;20062;-82
2022/04/05 00:55:29;;;;;;;23.90;2.75;;;;;;;;;;4978103;28;20078;-82
2022/04/05 00:57:56;;;;;;;15.57;1.52;;;;;;;;;;4980825;28;20029;-81
2022/04/05 01:00:22;;;;;;;13.63;2.78;;;;;;;;;;4976546;28;20029;-82
2022/04/05 01:02:49;;;;;;;8.98;1.90;;;;;;;;;;4977411;28;20027;-82
2022/04/05 01:05:19;;;;;;;17.48;2.80;;;;;;;;;;4965707;28;20485;-81
2022/04/05 01:07:47;;;;;;;14.73;1.55;;;;;;;;;;4973470;28;20145;-82
2022/04/05 01:10:13;;;;;;;23.63;2.45;;;;;;;;;;4980185;28;20054;-82
2022/04/05 01:12:39;;;;;;;21.27;2.17;;;;;;;;;;4965078;28;21131;-82
2022/04/05 01:15:06;;;;;;;15.95;2.45;;;;;;;;;;4979144;28;20034;-81
2022/04/05 01:17:32;;;;;;;18.05;1.90;;;;;;;;;;4975010;28;20062;-82
2022/04/05 01:19:58;;;;;;;20.80;1.83;;;;;;;;;;4963811;28;20033;-81
2022/04/05 01:22:24;;;;;;;26.42;2.20;;;;;;;;;;4963206;28;20681;-81
2022/04/05 01:24:51;;;;;;;13.05;2.03;;;;;;;;;;4975245;28;20030;-82
2022/04/05 01:27:19;;;;;;;21.00;1.40;;;;;;;;;;4962510;28;20042;-82
2022/04/05 01:29:45;;;;;;;10.73;0.93;;;;;;;;;;4956752;28;20953;-82
2022/04/05 01:32:11;;;;;;;16.25;2.45;;;;;;;;;;4957847;28;20548;-82
2022/04/05 01:34:38;;;;;;;12.57;2.08;;;;;;;;;;4978150;28;20065;-82
2022/04/05 01:37:08;;;;;;;20.80;2.65;;;;;;;;;;4970073;28;20035;-82
2022/04/05 01:39:36;;;;;;;27.33;2.40;;;;;;;;;;4977649;28;20383;-82
2022/04/05 01:42:03;;;;;;;13.07;2.03;;;;;;;;;;4977176;28;20110;-82
2022/04/05 01:44:31;;;;;;;12.63;2.00;;;;;;;;;;4961624;28;20756;-81
2022/04/05 01:46:57;;;;;;;14.07;1.92;;;;;;;;;;4963043;28;20065;-81
2022/04/05 01:49:23;;;;;;;9.63;1.75;;;;;;;;;;4960137;28;20023;-82
2022/04/05 01:51:50;;;;;;;22.17;2.53;;;;;;;;;;4975448;28;20026;-82
2022/04/05 01:54:17;;;;;;;27.90;2.28;;;;;;;;;;4976490;28;20034;-82
2022/04/05 01:56:43;;;;;;;14.18;2.20;;;;;;;;;;4972607;28;20039;-82
2022/04/05 01:59:10;;;;;;;15.50;3.13;;;;;;;;;;4978685;28;20744;-82
2022/04/05 02:01:36;;;;;;;19.15;2.30;;;;;;;;;;4978618;28;20027;-82
2022/04/05 02:04:02;;;;;;;14.15;1.55;;;;;;;;;;4970388;28;20858;-82
2022/04/05 02:06:28;;;;;;;17.75;1.92;;;;;;;;;;4975517;28;20025;-82
2022/04/05 02:08:55;;;;;;;9.77;1.45;;;;;;;;;;4961055;28;20086;-82
2022/04/05 02:11:22;;;;;;;21.25;2.17;;;;;;;;;;4976957;28;20068;-82
2022/04/05 02:13:49;;;;;;;26.73;3.05;;;;;;;;;;4959400;28;20478;-82
2022/04/05 02:16:15;;;;;;;24.08;1.90;;;;;;;;;;4979791;28;20058;-83
2022/04/05 02:18:41;;;;;;;24.23;2.90;;;;;;;;;;4975991;28;20034;-82
2022/04/05 02:21:07;;;;;;;24.73;2.70;;;;;;;;;;4961924;28;20047;-82
2022/04/05 02:23:33;;;;;;;20.85;2.58;;;;;;;;;;4961748;28;20042;-82
2022/04/05 02:26:00;;;;;;;21.45;2.10;;;;;;;;;;4977694;28;20039;-82
2022/04/05 02:28:26;;;;;;;26.52;2.90;;;;;;;;;;4978586;28;20102;-82
2022/04/05 02:30:53;;;;;;;25.27;2.53;;;;;;;;;;4978718;28;20030;-82
2022/04/05 02:33:20;;;;;;;19.25;2.30;;;;;;;;;;4961865;28;20029;-82
2022/04/05 02:35:46;;;;;;;29.65;2.45;;;;;;;;;;4981561;28;20066;-82
2022/04/05 02:38:12;;;;;;;13.38;1.65;;;;;;;;;;4961809;28;20479;-83
2022/04/05 02:40:38;;;;;;;21.08;2.40;;;;;;;;;;4979241;28;20160;-82
2022/04/05 02:43:04;;;;;;;34.67;4.30;;;;;;;;;;4961358;28;20147;-83
2022/04/05 02:45:30;;;;;;;22.00;2.42;;;;;;;;;;4979862;28;20101;-83
2022/04/05 02:47:56;;;;;;;27.85;3.08;;;;;;;;;;4964235;28;20534;-82
2022/04/05 02:50:23;;;;;;;25.35;2.85;;;;;;;;;;4977074;28;20033;-83
2022/04/05 02:52:49;;;;;;;29.45;3.03;;;;;;;;;;4963612;28;20117;-83
2022/04/05 02:55:16;;;;;;;20.02;2.63;;;;;;;;;;4965875;28;20041;-82
2022/04/05 02:57:43;;;;;;;23.70;2.85;;;;;;;;;;4979636;28;20188;-83
2022/04/05 03:00:13;;;;;;;23.33;3.08;;;;;;;;;;4973838;28;20026;-82
2022/04/05 03:02:40;;;;;;;36.20;2.58;;;;;;;;;;4970670;28;20050;-83
2022/04/05 03:05:07;;;;;;;31.80;2.60;;;;;;;;;;4968778;28;20393;-82
2022/04/05 03:07:34;;;;;;;23.77;1.98;;;;;;;;;;4966071;28;20026;-83
2022/04/05 03:10:08;;;;;;;27.60;3.60;;;;;;;;;;4978512;28;20058;-82
2022/04/05 03:12:35;;;;;;;29.58;3.40;;;;;;;;;;4989399;28;20031;-83
2022/04/05 03:15:02;;;;;;;24.77;2.33;;;;;;;;;;4963935;28;20046;-82
2022/04/05 03:17:28;;;;;;;26.80;3.22;;;;;;;;;;4965610;28;20406;-83
2022/04/05 03:19:54;;;;;;;25.63;3.45;;;;;;;;;;4966974;28;20030;-83
2022/04/05 03:22:20;;;;;;;25.02;2.67;;;;;;;;;;4968253;28;20034;-83
2022/04/05 03:24:47;;;;;;;22.95;2.30;;;;;;;;;;4964877;28;20043;-82
2022/04/05 03:27:13;;;;;;;18.65;1.85;;;;;;;;;;4967311;28;20118;-83
2022/04/05 03:29:39;;;;;;;14.75;2.08;;;;;;;;;;4979453;28;20039;-82
2022/04/05 03:32:05;;;;;;;30.58;2.70;;;;;;;;;;4961778;28;20030;-83
2022/04/05 03:34:31;;;;;;;15.35;2.35;;;;;;;;;;4967108;28;20109;-82
2022/04/05 03:36:57;;;;;;;11.10;2.17;;;;;;;;;;4970373;28;20054;-83
2022/04/05 03:39:23;;;;;;;16.58;2.30;;;;;;;;;;4966632;28;20459;-82
2022/04/05 03:41:50;;;;;;;21.33;2.33;;;;;;;;;;4968545;28;20422;-83
2022/04/05 03:44:16;;;;;;;17.33;2.15;;;;;;;;;;4963897;28;20073;-82
2022/04/05 03:46:42;;;;;;;17.58;2.28;;;;;;;;;;4979922;28;20018;-83
2022/04/05 03:49:08;;;;;;;35.38;2.42;;;;;;;;;;4964918;28;20499;-83
2022/04/05 03:51:34;;;;;;;23.10;2.95;;;;;;;;;;4982124;28;22017;-83
2022/04/05 03:54:00;;;;;;;26.60;3.45;;;;;;;;;;4966994;28;20042;-82
2022/04/05 03:56:26;;;;;;;22.58;2.72;;;;;;;;;;4980626;28;20026;-83
2022/04/05 03:58:52;;;;;;;22.75;2.00;;;;;;;;;;4964135;28;20030;-83
2022/04/05 04:01:18;;;;;;;16.73;1.73;;;;;;;;;;4968076;28;20030;-83
2022/04/05 04:03:45;;;;;;;31.60;2.75;;;;;;;;;;4965916;28;20030;-83
2022/04/05 04:06:11;;;;;;;12.07;2.20;;;;;;;;;;4980854;28;20054;-83
2022/04/05 04:08:37;;;;;;;29.98;2.85;;;;;;;;;;4984389;28;20093;-83
2022/04/05 04:11:03;;;;;;;23.25;2.38;;;;;;;;;;4979207;28;20069;-83
2022/04/05 04:13:29;;;;;;;19.73;2.05;;;;;;;;;;4967898;28;20437;-82
2022/04/05 04:15:59;;;;;;;20.08;2.45;;;;;;;;;;4966747;28;20042;-83
2022/04/05 04:18:25;;;;;;;20.25;1.83;;;;;;;;;;4966197;28;20038;-83
2022/04/05 04:20:51;;;;;;;21.88;2.08;;;;;;;;;;4961960;28;21134;-82
2022/04/05 04:23:17;;;;;;;21.10;2.30;;;;;;;;;;4975958;28;20634;-83
2022/04/05 04:25:43;;;;;;;19.15;2.92;;;;;;;;;;4982474;28;21351;-83
2022/04/05 04:28:10;;;;;;;14.27;2.50;;;;;;;;;;4980091;28;20121;-83
2022/04/05 04:30:37;;;;;;;13.38;2.00;;;;;;;;;;4966870;28;20149;-82
2022/04/05 04:33:03;;;;;;;23.85;2.47;;;;;;;;;;4978167;28;20125;-82
2022/04/05 04:35:30;;;;;;;25.58;2.20;;;;;;;;;;4967155;28;20074;-82
2022/04/05 04:37:57;;;;;;;10.35;1.40;;;;;;;;;;4963142;28;20091;-83
2022/04/05 04:40:23;;;;;;;29.02;3.20;;;;;;;;;;4961189;28;20038;-82
2022/04/05 04:42:49;;;;;;;18.75;3.03;;;;;;;;;;4967061;28;20608;-83
2022/04/05 04:45:15;;;;;;;26.27;2.95;;;;;;;;;;4964643;28;20080;-83
2022/04/05 04:47:41;;;;;;;27.30;2.95;;;;;;;;;;4963063;28;20121;-82
2022/04/05 04:50:08;;;;;;;19.20;3.25;;;;;;;;;;4968734;28;20584;-83
2022/04/05 04:52:40;;;;;;;24.55;2.30;;;;;;;;;;4975789;28;20038;-83
2022/04/05 04:55:07;;;;;;;17.52;2.40;;;;;;;;;;4974208;28;20386;-83
2022/04/05 04:57:33;;;;;;;20.40;2.22;;;;;;;;;;4980820;28;20092;-83
2022/04/05 04:59:59;;;;;;;17.88;2.70;;;;;;;;;;4984014;28;20037;-83
2022/04/05 05:02:26;;;;;;;13.57;2.00;;;;;;;;;;4965009;28;20026;-82
2022/04/05 05:04:52;;;;;;;23.08;2.65;;;;;;;;;;4962273;28;20033;-82
2022/04/05 05:07:18;;;;;;;24.38;3.08;;;;;;;;;;4964556;28;20426;-83
2022/04/05 05:09:44;;;;;;;21.70;2.80;;;;;;;;;;4981372;28;20386;-83
2022/04/05 05:12:11;;;;;;;12.82;2.45;;;;;;;;;;4963454;28;20029;-82
2022/04/05 05:14:37;;;;;;;12.80;2.63;;;;;;;;;;4977866;28;20596;-83
2022/04/05 05:17:03;;;;;;;17.20;2.88;;;;;;;;;;4956823;28;20134;-82
2022/04/05 05:19:29;;;;;;;22.05;3.17;;;;;;;;;;4965561;28;20080;-83
2022/04/05 05:21:56;;;;;;;34.25;3.20;;;;;;;;;;4981531;28;20030;-83
2022/04/05 05:24:22;;;;;;;5.90;2.03;;;;;;;;;;4980614;28;20537;-82
2022/04/05 05:26:48;;;;;;;29.13;3.30;;;;;;;;;;4958199;28;20038;-83
2022/04/05 05:29:15;;;;;;;26.67;3.47;;;;;;;;;;4959420;28;20265;-82
2022/04/05 05:31:41;;;;;;;23.48;2.85;;;;;;;;;;4963279;28;20062;-83
2022/04/05 05:34:08;;;;;;;20.20;3.28;;;;;;;;;;4960079;28;20039;-83
2022/04/05 05:36:34;;;;;;;24.90;2.97;;;;;;;;;;4965305;28;20026;-83
2022/04/05 05:39:00;;;;;;;23.73;3.90;;;;;;;;;;4985378;28;20101;-83
2022/04/05 05:41:26;;;;;;;32.53;2.67;;;;;;;;;;4962931;28;20034;-83
2022/04/05 05:43:52;;;;;;;22.38;2.55;;;;;;;;;;4961719;28;20026;-83
2022/04/05 05:46:18;;;;;;;18.75;3.00;;;;;;;;;;4964303;28;20035;-83
2022/04/05 05:48:44;;;;;;;18.33;2.30;;;;;;;;;;4965932;28;20085;-83
2022/04/05 05:51:10;;;;;;;18.55;3.00;;;;;;;;;;4979885;28;20440;-83
2022/04/05 05:53:36;;;;;;;29.73;3.10;;;;;;;;;;4963313;28;20493;-82
2022/04/05 05:56:02;;;;;;;15.73;3.05;;;;;;;;;;4964877;28;20038;-82
2022/04/05 05:58:28;;;;;;;25.50;3.17;;;;;;;;;;4971141;28;20121;-83
2022/04/05 06:00:55;;;;;;;22.55;2.78;;;;;;;;;;4977338;28;20030;-83
2022/04/05 06:03:21;;;;;;;30.50;3.20;;;;;;;;;;4959382;28;20062;-82
2022/04/05 06:05:47;;;;;;;19.98;2.90;;;;;;;;;;4963485;28;20085;-83
2022/04/05 06:08:14;;;;;;;24.98;2.75;;;;;;;;;;4979726;28;20026;-83
2022/04/05 06:10:40;;;;;;;28.60;3.63;;;;;;;;;;4966222;28;20049;-83
2022/04/05 06:13:07;;;;;;;21.50;3.55;;;;;;;;;;4959609;28;20030;-83
2022/04/05 06:15:33;;;;;;;19.52;3.13;;;;;;;;;;4961147;28;20506;-82
2022/04/05 06:17:59;;;;;;;20.90;2.47;;;;;;;;;;4961756;28;20046;-83
2022/04/05 06:20:26;;;;;;;29.88;3.25;;;;;;;;;;4978730;28;20762;-83
2022/04/05 06:23:03;;;;;;;23.15;3.13;;;;;;;;;;4963136;28;20743;-83
2022/04/05 06:25:30;;;;;;;27.58;2.25;;;;;;;;;;4976571;28;20035;-83
2022/04/05 06:27:57;;;;;;;14.45;2.38;;;;;;;;;;4976870;28;20037;-83
2022/04/05 06:30:23;;;;;;;28.65;2.83;;;;;;;;;;4982477;28;20026;-83
2022/04/05 06:32:50;;;;;;;18.73;2.67;;;;;;;;;;4965834;28;20058;-82
2022/04/05 06:35:16;;;;;;;23.48;2.63;;;;;;;;;;4962728;28;20059;-83
2022/04/05 06:37:44;;;;;;;20.33;2.92;;;;;;;;;;4958986;28;20034;-83
2022/04/05 06:40:11;;;;;;;24.83;4.13;;;;;;;;;;4962009;28;20395;-83
2022/04/05 06:42:42;;;;;;;26.42;2.90;;;;;;;;;;4960320;28;20073;-83
2022/04/05 06:45:10;;;;;;;23.65;2.58;;;;;;;;;;4960469;28;20038;-83
2022/04/05 06:47:37;;;;;;;24.42;2.60;;;;;;;;;;4964336;28;20049;-83
2022/04/05 06:50:04;;;;;;;16.80;2.63;;;;;;;;;;4960659;28;20097;-83
2022/04/05 06:52:30;;;;;;;18.70;2.55;;;;;;;;;;4962816;28;20030;-83
2022/04/05 06:54:56;;;;;;;26.48;2.92;;;;;;;;;;4980401;28;20563;-83
2022/04/05 06:57:22;;;;;;;13.32;2.15;;;;;;;;;;4962985;28;20073;-83
2022/04/05 06:59:48;;;;;;;27.63;3.28;;;;;;;;;;4980890;28;20109;-83
2022/04/05 07:02:15;;;;;;;25.50;3.20;;;;;;;;;;4980467;28;20027;-83
2022/04/05 07:04:41;;;;;;;31.30;2.70;;;;;;;;;;4964010;28;20046;-83
2022/04/05 07:07:07;;;;;;;21.65;3.05;;;;;;;;;;4966519;28;20026;-83
2022/04/05 07:09:33;;;;;;;21.42;3.00;;;;;;;;;;4969141;28;20038;-83
2022/04/05 07:11:59;;;;;;;30.60;2.78;;;;;;;;;;4970430;28;20049;-83
2022/04/05 07:14:25;;;;;;;15.95;2.90;;;;;;;;;;4970365;28;20039;-83
2022/04/05 07:16:51;;;;;;;22.15;3.13;;;;;;;;;;4970448;28;20047;-83
2022/04/05 07:19:17;;;;;;;23.83;2.63;;;;;;;;;;4985115;28;20026;-83
2022/04/05 07:21:43;;;;;;;21.45;2.65;;;;;;;;;;4971739;28;20034;-83
2022/04/05 07:24:09;;;;;;;12.32;2.28;;;;;;;;;;4985959;28;20419;-82
2022/04/05 07:26:35;;;;;;;14.82;2.22;;;;;;;;;;4984422;28;20030;-83
2022/04/05 07:29:07;;;;;;;23.63;3.15;;;;;;;;;;4975694;28;20032;-83
2022/04/05 07:31:33;;;;;;;12.60;2.22;;;;;;;;;;4967358;28;20409;-84
2022/04/05 07:33:59;;;;;;;15.32;2.88;;;;;;;;;;4964629;28;20034;-83
2022/04/05 07:36:25;;;;;;;12.70;2.53;;;;;;;;;;4974067;28;20072;-84
2022/04/05 07:38:52;;;;;;;12.25;2.13;;;;;;;;;;4969179;28;20038;-83
2022/04/05 07:41:19;;;;;;;17.77;1.92;;;;;;;;;;4964875;28;20035;-84
2022/04/05 07:43:45;;;;;;;13.10;2.47;;;;;;;;;;4967607;28;20478;-82
2022/04/05 07:46:11;;;;;;;18.63;3.10;;;;;;;;;;4969273;28;20034;-82
2022/04/05 07:48:37;;;;;;;16.42;1.77;;;;;;;;;;4963395;28;20085;-82
2022/04/05 07:51:04;;;;;;;16.48;2.97;;;;;;;;;;4983950;28;20062;-82
2022/04/05 07:53:30;;;;;;;9.48;2.30;;;;;;;;;;4966475;28;20477;-82
2022/04/05 07:55:56;;;;;;;12.82;2.05;;;;;;;;;;4960939;28;20062;-83
2022/04/05 07:58:23;;;;;;;14.48;2.88;;;;;;;;;;4982489;28;20043;-81
2022/04/05 08:00:49;;;;;;;21.15;3.22;;;;;;;;;;4979792;28;20034;-81
2022/04/05 08:03:15;;;;;;;17.48;2.15;;;;;;;;;;4969420;28;20478;-82
2022/04/05 08:05:41;;;;;;;13.95;2.90;;;;;;;;;;4966420;28;20569;-82
2022/04/05 08:08:08;;;;;;;17.80;2.67;;;;;;;;;;4979067;28;20022;-82
2022/04/05 08:10:34;;;;;;;14.30;2.58;;;;;;;;;;4966546;28;20360;-82
2022/04/05 08:13:00;;;;;;;14.88;2.22;;;;;;;;;;4961841;28;20078;-82
2022/04/05 08:15:26;;;;;;;15.50;2.13;;;;;;;;;;4980626;28;20668;-82
2022/04/05 08:17:53;;;;;;;26.40;2.85;;;;;;;;;;4966799;28;20398;-82
2022/04/05 08:20:19;;;;;;;12.45;2.65;;;;;;;;;;4956847;28;20501;-82
2022/04/05 08:22:46;;;;;;;20.85;2.28;;;;;;;;;;4958384;28;20931;-83
2022/04/05 08:25:14;;;;;;;11.27;2.42;;;;;;;;;;4964553;28;20038;-82
2022/04/05 08:27:40;;;;;;;11.63;2.88;;;;;;;;;;4968063;28;20134;-82
2022/04/05 08:30:08;;;;;;;22.30;2.50;;;;;;;;;;4968222;28;20123;-82
2022/04/05 08:32:36;;;;;;;13.27;2.40;;;;;;;;;;4966178;28;20049;-82
2022/04/05 08:35:03;;;;;;;18.85;2.80;;;;;;;;;;4975669;28;20037;-83
2022/04/05 08:37:29;;;;;;;9.82;2.60;;;;;;;;;;4962134;28;20027;-82
2022/04/05 08:39:55;;;;;;;16.80;2.83;;;;;;;;;;4963209;28;20065;-83
2022/04/05 08:42:23;;;;;;;12.98;2.20;;;;;;;;;;4963662;28;20402;-83
2022/04/05 08:44:50;;;;;;;10.98;2.70;;;;;;;;;;4984095;28;20109;-83
2022/04/05 08:47:21;;;;;;;8.00;2.53;;;;;;;;;;4979502;28;20722;-83
2022/04/05 08:49:49;;;;;;;8.38;2.13;;;;;;;;;;4958854;28;20041;-82
2022/04/05 08:52:15;;;;;;;9.52;2.60;;;;;;;;;;4980142;28;20045;-83
2022/04/05 08:54:41;;;;;;;15.27;2.33;;;;;;;;;;4964390;28;20034;-82
2022/04/05 08:57:07;;;;;;;10.02;2.00;;;;;;;;;;4980632;28;20038;-83
2022/04/05 08:59:33;;;;;;;21.38;3.42;;;;;;;;;;4962750;28;20034;-82
2022/04/05 09:01:59;;;;;;;15.15;2.67;;;;;;;;;;4966321;28;22233;-83
2022/04/05 09:04:25;;;;;;;15.48;2.72;;;;;;;;;;4965809;28;20038;-83
2022/04/05 09:06:51;;;;;;;9.70;3.00;;;;;;;;;;4967081;28;20030;-83
2022/04/05 09:09:18;;;;;;;12.10;2.92;;;;;;;;;;4984640;28;20022;-83
2022/04/05 09:11:44;;;;;;;7.80;2.13;;;;;;;;;;4975705;28;20106;-83
2022/04/05 09:14:10;;;;;;;13.60;2.45;;;;;;;;;;4965148;28;20038;-82
2022/04/05 09:16:42;;;;;;;13.23;2.33;;;;;;;;;;4967524;28;20468;-83
2022/04/05 09:19:16;;;;;;;8.77;2.58;;;;;;;;;;4972838;28;20031;-83
2022/04/05 09:21:49;;;;;;;15.82;2.13;;;;;;;;;;4965572;28;20045;-83
2022/04/05 09:24:15;;;;;;;14.55;2.53;;;;;;;;;;4959946;28;20041;-83
2022/04/05 09:26:43;;;;;;;8.48;2.53;;;;;;;;;;4981151;28;20111;-82
2022/04/05 09:29:09;;;;;;;13.00;2.63;;;;;;;;;;4958941;28;20061;-83
2022/04/05 09:31:43;;;;;;;9.43;2.58;;;;;;;;;;4980063;28;20027;-83
2022/04/05 09:34:16;;;;;;;6.93;2.80;;;;;;;;;;4976374;28;20121;-83
2022/04/05 09:36:43;;;;;;;11.00;3.30;;;;;;;;;;4962391;28;20069;-83
2022/04/05 09:39:10;;;;;;;6.05;1.75;;;;;;;;;;4959486;28;20536;-82
2022/04/05 09:41:36;;;;;;;7.50;2.50;;;;;;;;;;4975507;28;20038;-83
2022/04/05 09:44:02;;;;;;;14.65;2.65;;;;;;;;;;4963404;28;20550;-82
2022/04/05 09:46:30;;;;;;;10.50;2.90;;;;;;;;;;4969615;28;20073;-82
2022/04/05 09:49:08;;;;;;;12.30;2.97;;;;;;;;;;4961661;28;20031;-82
2022/04/05 09:51:42;;;;;;;5.88;2.15;;;;;;;;;;4976694;28;20778;-82
2022/04/05 09:54:08;;;;;;;3.95;1.75;;;;;;;;;;4978136;28;20034;-82
2022/04/05 09:56:38;;;;;;;9.40;2.30;;;;;;;;;;4967366;28;20513;-82
2022/04/05 09:59:24;;;;;;;5.10;1.70;;;;;;;;;;4969410;28;20034;-82
2022/04/05 10:01:56;;;;;;;4.82;2.15;;;;;;;;;;4959828;28;20501;-81
2022/04/05 10:04:22;;;;;;;13.40;2.35;;;;;;;;;;4962007;28;20050;-82
2022/04/05 10:06:48;;;;;;;12.77;3.17;;;;;;;;;;4962216;28;20034;-81
2022/04/05 10:09:15;;;;;;;6.35;1.83;;;;;;;;;;4965696;28;20125;-82
2022/04/05 10:11:42;;;;;;;4.57;2.13;;;;;;;;;;4971358;28;20553;-82
2022/04/05 10:14:10;;;;;;;11.07;2.33;;;;;;;;;;4972085;28;20135;-81
2022/04/05 10:16:37;;;;;;;7.38;2.50;;;;;;;;;;4966596;28;20084;-81
2022/04/05 10:19:04;;;;;;;8.00;2.55;;;;;;;;;;4961892;28;20097;-81
2022/04/05 10:21:31;;;;;;;6.63;2.00;;;;;;;;;;4975490;28;20046;-81
2022/04/05 10:23:58;;;;;;;8.60;2.35;;;;;;;;;;4960650;28;20123;-81
2022/04/05 10:26:27;;;;;;;4.78;2.03;;;;;;;;;;4981210;28;20034;-81
2022/04/05 10:28:54;;;;;;;3.15;1.98;;;;;;;;;;4965080;28;20061;-81
2022/04/05 10:31:39;;;;;;;5.32;1.77;;;;;;;;;;4964722;28;20096;-81
2022/04/05 10:34:24;;;;;;;5.22;1.88;;;;;;;;;;4976676;28;20061;-81
2022/04/05 10:37:10;;;;;;;6.82;2.17;;;;;;;;;;4978330;28;20042;-82
2022/04/05 10:39:37;;;;;;;12.25;1.85;;;;;;;;;;4961918;28;20459;-81
2022/04/05 10:42:09;;;;;;;3.20;1.55;;;;;;;;;;4963807;28;20049;-80
2022/04/05 10:44:38;;;;;;;9.20;2.35;;;;;;;;;;4963928;28;20481;-81
2022/04/05 10:47:06;;;;;;;2.85;1.38;;;;;;;;;;4969512;28;20077;-81
2022/04/05 10:49:37;;;;;;;2.47;1.20;;;;;;;;;;4967294;28;20035;-80
2022/04/05 10:52:09;;;;;;;3.13;1.45;;;;;;;;;;4979613;28;20616;-81
2022/04/05 10:54:40;;;;;;;5.53;1.73;;;;;;;;;;4979931;28;20088;-81
2022/04/05 10:57:28;;;;;;;6.63;2.03;;;;;;;;;;4981309;28;20112;-81
2022/04/05 10:59:55;;;;;;;4.10;1.85;;;;;;;;;;4961107;28;20034;-81
2022/04/05 11:02:35;;;;;;;4.95;1.85;;;;;;;;;;4965763;28;20497;-81
2022/04/05 11:05:03;;;;;;;4.47;1.55;;;;;;;;;;4963748;28;20520;-81
2022/04/05 11:07:29;;;;;;;6.45;1.73;;;;;;;;;;4965520;28;20474;-81
2022/04/05 11:09:59;;;;;;;3.30;1.60;;;;;;;;;;4966265;28;20031;-81
2022/04/05 11:12:26;;;;;;;6.50;1.77;;;;;;;;;;4982544;28;20038;-81
2022/04/05 11:14:56;;;;;;;3.13;1.77;;;;;;;;;;4961768;28;20027;-81
2022/04/05 11:17:24;;;;;;;5.00;1.63;;;;;;;;;;4971443;28;20124;-81
2022/04/05 11:19:51;;;;;;;4.25;1.83;;;;;;;;;;4986589;28;20069;-81
2022/04/05 11:22:20;;;;;;;1.08;0.85;;;;;;;;;;4970416;28;20029;-81
2022/04/05 11:25:04;;;;;;;5.05;1.70;;;;;;;;;;4977113;28;20039;-81
2022/04/05 11:27:33;;;;;;;7.63;1.85;;;;;;;;;;4968258;28;20022;-81
2022/04/05 11:30:18;;;;;;;2.95;2.00;;;;;;;;;;4980269;28;20112;-80
2022/04/05 11:33:02;;;;;;;2.67;1.48;;;;;;;;;;4979639;28;20461;-81
2022/04/05 11:35:29;;;;;;;5.30;2.05;;;;;;;;;;4967964;28;20046;-81
2022/04/05 11:37:55;;;;;;;10.90;1.98;;;;;;;;;;4965528;28;20549;-81
2022/04/05 11:40:21;;;;;;;4.50;1.85;;;;;;;;;;4965569;28;20027;-81
2022/04/05 11:42:47;;;;;;;2.80;1.83;;;;;;;;;;4960076;28;20061;-81
2022/04/05 11:45:13;;;;;;;2.25;1.50;;;;;;;;;;4981540;28;20039;-81
2022/04/05 11:47:39;;;;;;;6.03;1.73;;;;;;;;;;4986711;28;20676;-81
2022/04/05 11:50:12;;;;;;;2.40;1.88;;;;;;;;;;4986812;28;20108;-81
2022/04/05 11:52:38;;;;;;;2.88;1.73;;;;;;;;;;4985962;28;20018;-81
2022/04/05 11:58:05;;;;;;;2.70;1.83;;;;;;;;;;4980279;28;20528;-81
2022/04/05 12:00:33;;;;;;;4.47;1.90;;;;;;;;;;4975005;28;20474;-82
2022/04/05 12:03:07;;;;;;;2.80;1.67;;;;;;;;;;4967179;28;20046;-81
2022/04/05 12:05:45;;;;;;;2.50;1.70;;;;;;;;;;4962997;28;20027;-81
2022/04/05 12:08:12;;;;;;;4.65;1.90;;;;;;;;;;4960259;28;20049;-81
2022/04/05 12:10:39;;;;;;;3.88;2.38;;;;;;;;;;4974112;28;20042;-81
2022/04/05 12:13:06;;;;;;;2.63;2.10;;;;;;;;;;4966788;28;20026;-81
2022/04/05 12:15:33;;;;;;;5.03;1.98;;;;;;;;;;4977815;28;20619;-81
2022/04/05 12:18:14;;;;;;;8.60;2.50;;;;;;;;;;4963685;28;20042;-81
2022/04/05 12:20:40;;;;;;;3.17;1.70;;;;;;;;;;4965907;28;20047;-82
2022/04/05 12:23:27;;;;;;;2.38;1.45;;;;;;;;;;4973526;28;20186;-82
2022/04/05 12:26:09;;;;;;;2.88;1.55;;;;;;;;;;4978616;28;20046;-81
2022/04/05 12:28:36;;;;;;;2.30;1.60;;;;;;;;;;4966040;28;20023;-82
2022/04/05 12:31:06;;;;;;;1.52;1.35;;;;;;;;;;4977416;28;20030;-82
2022/04/05 12:33:32;;;;;;;2.33;1.50;;;;;;;;;;4967162;28;21467;-82
2022/04/05 12:35:58;;;;;;;3.03;1.27;;;;;;;;;;4985035;28;20038;-82
2022/04/05 12:38:24;;;;;;;1.88;1.65;;;;;;;;;;4961737;28;20053;-82
2022/04/05 12:40:50;;;;;;;2.88;1.75;;;;;;;;;;4982331;28;20034;-82
2022/04/05 12:43:17;;;;;;;2.47;1.85;;;;;;;;;;4965909;28;20545;-82
2022/04/05 12:45:43;;;;;;;2.42;1.70;;;;;;;;;;4983042;28;20033;-82
2022/04/05 12:48:19;;;;;;;4.07;1.90;;;;;;;;;;4981826;28;20038;-82
2022/04/05 12:50:49;;;;;;;2.78;1.45;;;;;;;;;;4961326;28;20039;-82
2022/04/05 12:53:23;;;;;;;2.53;1.83;;;;;;;;;;4983587;28;20018;-82
2022/04/05 12:55:56;;;;;;;3.67;1.90;;;;;;;;;;4978968;28;20499;-82
2022/04/05 12:58:34;;;;;;;3.50;1.90;;;;;;;;;;4969947;28;20487;-82
2022/04/05 13:01:00;;;;;;;7.55;2.22;;;;;;;;;;4973187;28;20113;-82
2022/04/05 13:03:30;;;;;;;4.88;2.17;;;;;;;;;;4980555;28;20045;-82
2022/04/05 13:08:41;;;;;;;3.33;2.30;;;;;;;;;;4981286;28;20046;-80
2022/04/05 13:11:26;;;;;;;3.20;2.45;;;;;;;;;;4977554;28;20022;-80
2022/04/05 13:14:22;;;;;;;3.35;2.60;;;;;;;;;;4975861;28;20038;-79
2022/04/05 13:16:59;;;;;;;7.07;2.53;;;;;;;;;;4959207;28;20078;-80
2022/04/05 13:19:25;;;;;;;4.45;2.88;;;;;;;;;;4975386;28;20053;-79
2022/04/05 13:21:52;;;;;;;5.80;3.35;;;;;;;;;;4966600;28;20065;-79
2022/04/05 13:24:19;;;;;;;7.97;3.33;;;;;;;;;;4977595;28;20037;-80
2022/04/05 13:26:47;;;;;;;8.07;3.35;;;;;;;;;;4965082;28;20073;-80
2022/04/05 13:29:13;;;;;;;4.22;2.55;;;;;;;;;;4978691;28;20015;-80
2022/04/05 13:31:51;;;;;;;6.18;3.28;;;;;;;;;;4966311;28;20050;-80
2022/04/05 13:34:21;;;;;;;9.95;4.05;;;;;;;;;;4977372;28;20157;-80
2022/04/05 13:36:48;;;;;;;11.32;4.47;;;;;;;;;;4963700;28;20120;-80
2022/04/05 13:39:14;;;;;;;7.13;3.15;;;;;;;;;;4965941;28;20721;-80
2022/04/05 13:41:41;;;;;;;8.68;3.85;;;;;;;;;;4967941;28;20048;-79
2022/04/05 13:44:08;;;;;;;7.32;4.22;;;;;;;;;;4984055;28;20035;-80
2022/04/05 13:46:35;;;;;;;8.93;3.65;;;;;;;;;;4981766;28;20033;-80
2022/04/05 13:49:06;;;;;;;4.32;2.80;;;;;;;;;;4979176;28;20144;-80
2022/04/05 13:51:32;;;;;;;4.88;2.85;;;;;;;;;;4972171;28;20026;-80
2022/04/05 13:53:58;;;;;;;5.45;3.13;;;;;;;;;;4978320;28;20033;-80
2022/04/05 13:56:24;;;;;;;6.18;3.00;;;;;;;;;;4978717;28;20478;-80
2022/04/05 13:58:50;;;;;;;19.45;4.55;;;;;;;;;;4976289;28;20558;-80
2022/04/05 14:01:16;;;;;;;8.63;4.28;;;;;;;;;;4982191;28;20109;-80
2022/04/05 14:03:42;;;;;;;8.90;4.15;;;;;;;;;;4965346;28;20091;-80
2022/04/05 14:06:08;;;;;;;15.20;4.85;;;;;;;;;;4983655;28;20038;-79
2022/04/05 14:08:35;;;;;;;6.90;3.10;;;;;;;;;;4962908;28;20026;-80
2022/04/05 14:11:04;;;;;;;9.80;3.95;;;;;;;;;;4962649;28;20031;-80
2022/04/05 14:13:30;;;;;;;17.83;5.65;;;;;;;;;;4968071;28;20169;-81
2022/04/05 14:15:56;;;;;;;31.35;6.28;;;;;;;;;;4975151;28;20190;-80
2022/04/05 14:18:22;;;;;;;20.33;5.20;;;;;;;;;;4966667;28;20503;-80
2022/04/05 14:20:49;;;;;;;12.70;6.43;;;;;;;;;;4964378;28;20054;-80
2022/04/05 14:23:15;;;;;;;14.77;6.25;;;;;;;;;;4962882;28;20117;-80
2022/04/05 14:25:41;;;;;;;18.52;6.47;;;;;;;;;;4965100;28;20629;-80
2022/04/05 14:28:08;;;;;;;18.42;5.63;;;;;;;;;;4964436;28;20077;-80
2022/04/05 14:30:34;;;;;;;20.15;5.43;;;;;;;;;;4966447;28;20030;-80
2022/04/05 14:33:07;;;;;;;16.70;6.90;;;;;;;;;;4981905;28;20109;-80
2022/04/05 14:35:34;;;;;;;20.73;7.60;;;;;;;;;;4979515;28;20030;-80
2022/04/05 14:38:00;;;;;;;14.50;5.25;;;;;;;;;;4977277;28;20018;-80
2022/04/05 14:40:26;;;;;;;34.70;5.80;;;;;;;;;;4963095;28;20235;-80
2022/04/05 14:42:52;;;;;;;17.27;5.82;;;;;;;;;;4962431;28;20614;-80